Time;durP1;ratioP1;P1;durP2;ratioP2;P2;SDS_P1;SDS_P2;PMS_P1;PMS_P2;Temp;Humidity;BMP_temperature;BMP_pressure;BME280_temperature;BME280_humidity;BME280_pressure;Samples;Min_cycle;Max_cycle;Signal;HPM_P1;HPM_P2
2023/07/06 00:00:49;;;;;;;;;;;;;;;14.87;92.26;101491.22;4997985;28;20073;-79
2023/07/06 00:03:14;;;;;;;4.68;2.55;;;;;;;14.87;92.48;101497.34;4981440;28;19914;-79
2023/07/06 00:05:47;;;;;;;2.90;1.50;;;;;;;14.87;92.26;101504.41;5017438;28;20037;-78
2023/07/06 00:08:18;;;;;;;5.30;1.73;;;;;;;14.87;92.43;101501.75;5017535;28;20038;-79
2023/07/06 00:10:50;;;;;;;2.33;1.73;;;;;;;14.86;92.52;101506.19;4982383;28;20249;-79
2023/07/06 00:13:17;;;;;;;2.53;1.77;;;;;;;14.87;92.26;101502.59;4998152;28;20037;-79
2023/07/06 00:15:43;;;;;;;5.40;2.20;;;;;;;14.89;92.51;101502.53;4980185;28;20104;-79
2023/07/06 00:18:10;;;;;;;4.75;2.40;;;;;;;14.88;92.89;101504.34;4997596;28;20073;-79
2023/07/06 00:20:39;;;;;;;3.38;2.20;;;;;;;14.89;92.78;101510.44;4980166;28;20333;-79
2023/07/06 00:23:05;;;;;;;3.50;1.70;;;;;;;14.88;92.96;101509.59;4997373;28;20363;-79
2023/07/06 00:25:33;;;;;;;3.03;1.80;;;;;;;14.90;92.87;101506.91;4980083;28;20234;-79
2023/07/06 00:27:59;;;;;;;2.28;1.65;;;;;;;14.89;92.76;101503.38;4997358;28;20337;-79
2023/07/06 00:31:01;;;;;;;2.53;1.75;;;;;;;14.90;92.67;101510.38;4998016;28;20069;-78
2023/07/06 00:33:18;;;;;;;5.15;2.05;;;;;;;14.90;92.80;101507.75;4996497;28;20046;-79
2023/07/06 00:35:44;;;;;;;2.65;1.70;;;;;;;14.91;93.02;101504.16;4999245;28;20068;-78
2023/07/06 00:38:14;;;;;;;1.35;1.25;;;;;;;14.91;92.93;101519.97;5016704;28;20034;-78
2023/07/06 00:40:48;;;;;;;2.28;1.70;;;;;;;14.92;92.98;101520.88;4982238;28;20026;-78
2023/07/06 00:43:16;;;;;;;5.32;2.47;;;;;;;14.92;92.81;101513.78;4997781;28;20403;-79
2023/07/06 00:45:44;;;;;;;6.18;1.98;;;;;;;14.93;92.77;101514.63;4997376;28;20038;-78
2023/07/06 00:48:20;;;;;;;3.10;1.52;;;;;;;14.93;92.93;101514.63;4997250;28;20060;-79
2023/07/06 00:50:49;;;;;;;4.43;1.70;;;;;;;14.93;92.65;101509.38;4997475;28;20574;-79
2023/07/06 00:53:17;;;;;;;3.80;2.15;;;;;;;14.93;92.50;101504.09;4997374;28;20030;-79
2023/07/06 00:55:43;;;;;;;3.50;1.77;;;;;;;14.93;92.35;101502.31;4979456;28;20026;-78
2023/07/06 00:58:23;;;;;;;2.17;1.58;;;;;;;14.96;92.36;101506.59;4996350;28;20335;-78
2023/07/06 01:04:13;;;;;;;2.90;1.75;;;;;;;14.95;92.27;101505.75;5272454;23;20067;-79
2023/07/06 01:06:50;;;;;;;;;;;;;;;14.95;92.24;101508.38;5038804;28;20063;-79
2023/07/06 01:09:17;;;;;;;7.65;2.33;;;;;;;14.95;92.10;101507.50;5030243;28;20228;-80
2023/07/06 01:11:44;;;;;;;2.17;1.45;;;;;;;14.95;92.13;101510.13;5016567;28;20096;-80
2023/07/06 01:14:12;;;;;;;4.03;1.92;;;;;;;14.94;91.90;101509.28;5015766;28;20033;-80
2023/07/06 01:16:47;;;;;;;6.07;2.53;;;;;;;14.94;92.22;101508.44;5016449;28;20095;-80
2023/07/06 01:19:28;;;;;;;2.70;2.00;;;;;;;14.93;92.11;101502.31;4998411;28;20100;-80
2023/07/06 01:22:13;;;;;;;3.67;2.15;;;;;;;14.94;92.27;101500.53;5016373;28;20277;-80
2023/07/06 01:24:57;;;;;;;1.80;1.50;;;;;;;14.94;92.38;101505.81;4998251;28;20033;-80
2023/07/06 01:27:34;;;;;;;4.35;2.20;;;;;;;14.94;92.40;101500.53;4998163;28;20030;-80
2023/07/06 01:30:21;;;;;;;3.67;1.65;;;;;;;14.93;92.33;101499.66;5015422;28;20320;-80
2023/07/06 01:33:02;;;;;;;2.92;1.92;;;;;;;14.94;92.09;101503.19;4997883;28;20341;-80
2023/07/06 01:35:57;;;;;;;5.57;2.20;;;;;;;14.92;92.10;101503.25;5054547;28;20523;-80
2023/07/06 01:38:23;;;;;;;2.63;1.90;;;;;;;14.93;92.17;101509.38;5055758;28;20211;-80
2023/07/06 01:40:49;;;;;;;2.60;1.88;;;;;;;14.93;92.20;101504.09;5019135;28;20036;-80
2023/07/06 01:43:15;;;;;;;3.60;1.70;;;;;;;14.93;92.40;101502.31;5017397;28;20286;-80
2023/07/06 01:45:40;;;;;;;3.15;1.92;;;;;;;14.94;92.31;101505.81;5017842;28;20029;-80
2023/07/06 01:48:10;;;;;;;2.55;1.80;;;;;;;14.94;92.29;101504.03;5035071;28;20060;-80
2023/07/06 01:51:29;;;;;;;1.95;1.70;;;;;;;14.93;92.21;101507.56;5035846;28;20447;-80
2023/07/06 01:54:06;;;;;;;3.60;2.08;;;;;;;14.93;92.37;101497.03;4973370;28;20043;-80
2023/07/06 01:56:43;;;;;;;4.30;2.22;;;;;;;14.94;92.41;101500.53;5027357;28;20348;-80
2023/07/06 01:59:11;;;;;;;4.10;1.77;;;;;;;14.94;92.68;101503.19;5017162;28;20021;-80
2023/07/06 02:01:48;;;;;;;2.43;1.70;;;;;;;14.93;92.72;101510.22;5017484;28;20378;-80
2023/07/06 02:04:14;;;;;;;3.75;1.90;;;;;;;14.93;92.45;101501.44;5021018;28;20105;-80
2023/07/06 02:06:41;;;;;;;4.32;1.98;;;;;;;14.94;92.53;101508.44;5015713;28;20046;-80
2023/07/06 02:09:13;;;;;;;4.75;2.13;;;;;;;14.93;92.82;101504.09;5014454;28;20045;-80
2023/07/06 02:11:39;;;;;;;3.58;1.88;;;;;;;14.93;92.59;101507.56;5015494;28;20025;-80
2023/07/06 02:14:04;;;;;;;3.25;1.83;;;;;;;14.93;92.58;101501.44;4997134;28;20596;-80
2023/07/06 02:16:30;;;;;;;2.78;1.98;;;;;;;14.94;92.72;101506.66;5015949;28;20278;-79
2023/07/06 02:18:58;;;;;;;4.03;1.95;;;;;;;14.93;92.60;101501.44;5015053;28;20042;-79
2023/07/06 02:21:24;;;;;;;;;;;;;;;14.93;92.71;101502.31;5015827;28;20041;-78
2023/07/06 02:23:49;;;;;;;2.30;1.77;;;;;;;14.94;92.56;101497.91;4997084;28;19909;-78
2023/07/06 02:26:15;;;;;;;3.30;1.80;;;;;;;14.93;92.74;101491.75;4997594;28;20343;-79
2023/07/06 02:28:42;;;;;;;2.95;1.88;;;;;;;14.92;92.76;101495.34;5015378;28;20075;-79
2023/07/06 02:31:07;;;;;;;3.13;1.85;;;;;;;14.92;92.76;101492.69;5014748;28;20037;-79
2023/07/06 02:33:34;;;;;;;2.45;1.63;;;;;;;14.93;92.87;101502.31;5018354;28;20040;-79
2023/07/06 02:36:00;;;;;;;3.65;1.95;;;;;;;14.93;92.69;101498.81;5034636;28;20075;-79
2023/07/06 02:38:29;;;;;;;5.78;2.22;;;;;;;14.93;92.73;101489.13;5035254;28;20254;-79
2023/07/06 02:40:54;;;;;;;2.83;1.70;;;;;;;14.93;92.93;101496.19;5015431;28;20042;-79
2023/07/06 02:43:20;;;;;;;3.05;1.83;;;;;;;14.94;92.96;101497.91;5015178;28;20387;-79
2023/07/06 02:45:48;;;;;;;3.53;1.95;;;;;;;14.94;93.22;101500.53;5015346;28;20038;-78
2023/07/06 02:48:14;;;;;;;2.80;1.70;;;;;;;14.94;93.02;101503.19;5014995;28;20047;-79
2023/07/06 02:50:40;;;;;;;4.07;2.60;;;;;;;14.94;93.11;101506.66;5015217;28;20045;-79
2023/07/06 02:53:06;;;;;;;3.67;1.92;;;;;;;14.94;93.27;101511.09;5014312;28;20376;-79
2023/07/06 02:55:32;;;;;;;3.13;1.60;;;;;;;14.95;93.05;101515.41;5015663;28;20341;-78
2023/07/06 02:57:58;;;;;;;2.60;2.05;;;;;;;14.94;93.36;101513.72;4997281;28;20354;-79
2023/07/06 03:00:24;;;;;;;5.38;2.53;;;;;;;14.94;93.15;101509.28;5015100;28;20049;-79
2023/07/06 03:02:49;;;;;;;2.95;2.10;;;;;;;14.95;93.22;101518.06;4996557;28;20359;-78
2023/07/06 03:05:18;;;;;;;3.35;2.10;;;;;;;14.94;93.38;101519.84;5013977;28;20053;-78
2023/07/06 03:07:43;;;;;;;7.43;3.25;;;;;;;14.95;93.30;101516.28;4997272;28;20310;-78
2023/07/06 03:10:09;;;;;;;3.58;1.88;;;;;;;14.94;93.58;101514.56;5014301;28;20029;-78
2023/07/06 03:12:38;;;;;;;5.25;1.80;;;;;;;14.95;93.76;101518.06;4997261;28;20029;-78
2023/07/06 03:15:10;;;;;;;2.60;2.03;;;;;;;14.95;93.34;101521.56;5014155;28;20085;-78
2023/07/06 03:17:36;;;;;;;4.90;2.20;;;;;;;14.95;93.55;101518.94;5014820;28;20040;-79
2023/07/06 03:20:13;;;;;;;4.43;2.15;;;;;;;14.95;93.43;101521.56;5014400;28;20042;-79
2023/07/06 03:22:38;;;;;;;3.72;2.10;;;;;;;14.96;93.78;101522.41;5000526;28;20120;-79
2023/07/06 03:25:05;;;;;;;3.20;2.13;;;;;;;14.95;93.66;101528.59;5017458;28;20026;-79
2023/07/06 03:27:31;;;;;;;3.67;1.70;;;;;;;14.95;93.83;101529.47;5018224;28;20061;-79
2023/07/06 03:29:57;;;;;;;2.90;1.75;;;;;;;14.95;94.17;101525.97;5017607;28;20033;-79
2023/07/06 03:32:25;;;;;;;4.07;2.00;;;;;;;14.95;94.05;101525.97;5000048;28;20540;-78
2023/07/06 03:34:50;;;;;;;5.40;2.23;;;;;;;14.96;94.14;101527.69;5031806;28;20040;-79
2023/07/06 03:37:18;;;;;;;4.88;2.13;;;;;;;14.96;94.46;101532.97;5019581;28;20112;-79
2023/07/06 03:39:47;;;;;;;2.33;1.63;;;;;;;14.96;94.20;101532.97;5007182;28;20240;-79
2023/07/06 03:42:13;;;;;;;3.63;2.30;;;;;;;14.96;94.43;101530.31;4998136;28;20108;-78
2023/07/06 03:44:39;;;;;;;4.00;2.28;;;;;;;14.96;94.19;101532.97;4998258;28;20073;-78
2023/07/06 03:47:06;;;;;;;5.20;2.33;;;;;;;14.97;94.53;101526.75;4980181;28;20022;-79
2023/07/06 03:49:34;;;;;;;3.95;2.30;;;;;;;14.96;94.39;101530.31;4998126;28;20340;-79
2023/07/06 03:52:03;;;;;;;2.90;2.05;;;;;;;14.97;94.14;101526.75;4996412;28;20037;-78
2023/07/06 03:54:29;;;;;;;3.38;2.08;;;;;;;14.97;94.33;101526.75;4998234;28;20288;-79
2023/07/06 03:56:56;;;;;;;5.72;2.33;;;;;;;14.97;94.14;101530.25;4998004;28;20080;-79
2023/07/06 03:59:22;;;;;;;3.10;1.60;;;;;;;14.97;94.40;101539.94;4997844;28;20038;-79
2023/07/06 04:01:48;;;;;;;3.08;2.08;;;;;;;14.98;94.34;101541.66;4997625;28;20064;-78
2023/07/06 04:04:15;;;;;;;4.13;2.50;;;;;;;14.97;94.33;101543.44;5015334;28;20058;-78
2023/07/06 04:06:41;;;;;;;4.78;2.20;;;;;;;14.97;94.61;101545.19;5037071;28;20320;-78
2023/07/06 04:09:10;;;;;;;5.40;2.83;;;;;;;14.98;94.49;101544.28;5032294;28;20042;-78
2023/07/06 04:11:36;;;;;;;6.57;3.15;;;;;;;14.96;94.63;101544.34;5017230;28;20076;-79
2023/07/06 04:14:03;;;;;;;2.35;2.15;;;;;;;14.97;94.57;101542.56;5016812;28;20033;-79
2023/07/06 04:16:29;;;;;;;3.55;2.10;;;;;;;14.97;94.52;101543.44;5017928;28;20284;-79
2023/07/06 04:18:55;;;;;;;3.85;2.70;;;;;;;14.97;94.77;101546.09;5016672;28;20084;-79
2023/07/06 04:21:24;;;;;;;5.90;2.85;;;;;;;14.97;94.67;101545.19;5017052;28;20038;-79
2023/07/06 04:23:50;;;;;;;5.57;2.63;;;;;;;14.97;94.78;101550.47;5016685;28;20371;-79
2023/07/06 04:26:17;;;;;;;5.05;2.47;;;;;;;14.98;94.99;101547.78;5017361;28;20034;-79
2023/07/06 04:28:42;;;;;;;3.22;2.38;;;;;;;14.98;95.28;101546.94;5017018;28;20086;-79
2023/07/06 04:31:10;;;;;;;5.93;2.55;;;;;;;14.97;95.30;101547.84;5016459;28;20034;-79
2023/07/06 04:33:36;;;;;;;4.93;2.53;;;;;;;14.96;95.56;101549.63;5020362;28;20294;-79
2023/07/06 04:36:02;;;;;;;6.43;2.90;;;;;;;14.98;95.44;101553.06;5036091;28;20029;-79
2023/07/06 04:38:29;;;;;;;3.97;2.30;;;;;;;14.98;95.38;101553.06;5018947;28;20216;-79
2023/07/06 04:40:55;;;;;;;2.90;2.20;;;;;;;14.99;95.28;101548.66;5016722;28;20056;-79
2023/07/06 04:43:21;;;;;;;11.60;3.67;;;;;;;15.00;95.22;101555.63;4998656;28;20099;-79
2023/07/06 04:45:47;;;;;;;4.28;2.67;;;;;;;15.00;95.31;101554.78;5016160;28;20049;-79
2023/07/06 04:48:14;;;;;;;6.65;3.17;;;;;;;15.01;95.48;101564.38;5016309;28;20030;-79
2023/07/06 04:50:40;;;;;;;5.55;2.95;;;;;;;15.01;95.67;101562.63;5016653;28;20037;-79
2023/07/06 04:53:07;;;;;;;6.63;2.80;;;;;;;15.02;95.48;101560.81;5016129;28;20029;-79
2023/07/06 04:55:33;;;;;;;5.32;2.92;;;;;;;15.02;95.77;101568.75;5016713;28;20037;-79
2023/07/06 04:58:00;;;;;;;7.45;2.95;;;;;;;15.01;95.67;101578.44;5016235;28;20038;-79
2023/07/06 05:00:29;;;;;;;5.18;2.83;;;;;;;15.02;96.03;101580.13;4998682;28;20037;-78
2023/07/06 05:03:00;;;;;;;4.28;2.53;;;;;;;15.02;96.02;101580.13;5015817;28;20099;-78
2023/07/06 05:05:28;;;;;;;4.03;2.40;;;;;;;15.02;95.79;101574.84;5034436;28;20056;-78
2023/07/06 05:07:55;;;;;;;5.88;3.42;;;;;;;15.02;95.76;101585.41;5035789;28;20044;-79
2023/07/06 05:10:20;;;;;;;5.50;2.75;;;;;;;15.03;95.78;101573.09;5003422;28;20391;-79
2023/07/06 05:12:46;;;;;;;3.90;2.70;;;;;;;15.01;95.80;101578.44;5016223;28;20104;-79
2023/07/06 05:15:12;;;;;;;9.05;3.25;;;;;;;15.02;95.69;101584.56;5016003;28;20042;-78
2023/07/06 05:17:39;;;;;;;8.88;3.15;;;;;;;15.02;95.77;101585.41;5016082;28;20566;-78
2023/07/06 05:20:11;;;;;;;6.82;3.92;;;;;;;15.02;95.95;101584.56;4998020;28;20025;-79
2023/07/06 05:22:39;;;;;;;7.03;3.15;;;;;;;15.02;95.90;101585.41;5016449;28;20034;-78
2023/07/06 05:25:06;;;;;;;9.25;3.78;;;;;;;15.04;96.01;101590.63;5015233;28;20034;-78
2023/07/06 05:27:33;;;;;;;6.10;3.63;;;;;;;15.06;96.30;101596.69;5015645;28;20065;-78
2023/07/06 05:29:58;;;;;;;8.05;3.33;;;;;;;15.06;96.10;101594.91;5014047;28;20041;-79
2023/07/06 05:32:23;;;;;;;8.10;4.18;;;;;;;15.06;96.30;101589.63;5013871;28;20088;-79
2023/07/06 05:34:49;;;;;;;6.75;3.60;;;;;;;15.08;96.45;101595.69;5016957;28;20080;-79
2023/07/06 05:37:14;;;;;;;5.15;3.42;;;;;;;15.09;96.43;101604.44;5014951;28;20053;-79
2023/07/06 05:39:39;;;;;;;4.53;3.17;;;;;;;15.09;96.40;101604.44;5006230;28;20252;-79
2023/07/06 05:42:05;;;;;;;7.10;3.78;;;;;;;15.10;96.16;101604.38;5001100;28;20040;-79
2023/07/06 05:44:31;;;;;;;6.53;3.47;;;;;;;15.13;96.27;101606.00;5017280;28;20034;-79
2023/07/06 05:46:56;;;;;;;14.88;5.80;;;;;;;15.13;95.97;101604.25;5017146;28;20332;-79
2023/07/06 05:49:21;;;;;;;8.32;5.00;;;;;;;15.15;96.37;101606.78;5015403;28;20291;-79
2023/07/06 05:51:47;;;;;;;11.77;4.45;;;;;;;15.15;96.34;101607.66;5014273;28;20038;-79
2023/07/06 05:54:12;;;;;;;6.07;5.10;;;;;;;15.15;96.43;101607.66;5014727;28;20387;-79
2023/07/06 05:56:38;;;;;;;7.40;4.63;;;;;;;15.17;96.29;101610.19;5015393;28;20076;-79
2023/07/06 05:59:04;;;;;;;6.88;4.93;;;;;;;15.16;96.28;101609.34;5015092;28;20310;-79
2023/07/06 06:01:29;;;;;;;7.22;4.47;;;;;;;15.19;96.32;101618.94;5015775;28;20248;-79
2023/07/06 06:03:55;;;;;;;11.50;5.90;;;;;;;15.20;96.36;101619.78;5021363;28;20048;-79
2023/07/06 06:06:22;;;;;;;9.63;5.32;;;;;;;15.20;96.30;101620.63;5034543;28;20055;-79
2023/07/06 06:08:49;;;;;;;7.60;5.28;;;;;;;15.21;96.31;101624.09;5033135;28;20061;-79
2023/07/06 06:11:15;;;;;;;7.93;4.85;;;;;;;15.22;96.61;101623.19;5015049;28;20029;-79
2023/07/06 06:13:43;;;;;;;7.55;4.88;;;;;;;15.22;96.36;101631.94;5014553;28;20420;-79
2023/07/06 06:16:11;;;;;;;5.47;4.53;;;;;;;15.23;96.42;101632.81;5014867;28;20398;-78
2023/07/06 06:18:39;;;;;;;8.35;5.00;;;;;;;15.23;96.11;101640.75;5015379;28;20363;-78
2023/07/06 06:21:08;;;;;;;7.80;5.00;;;;;;;15.25;96.06;101644.16;5014473;28;20034;-78
2023/07/06 06:23:34;;;;;;;6.57;4.25;;;;;;;15.26;96.13;101640.56;5015519;28;20383;-79
2023/07/06 06:26:00;;;;;;;6.30;4.15;;;;;;;15.28;95.71;101647.50;5014663;28;20456;-78
2023/07/06 06:28:26;;;;;;;5.93;4.20;;;;;;;15.29;95.92;101651.84;5015131;28;20382;-79
2023/07/06 06:30:53;;;;;;;4.50;4.10;;;;;;;15.31;95.64;101651.78;4997154;28;20030;-79
2023/07/06 06:33:19;;;;;;;3.97;3.63;;;;;;;15.33;95.35;101658.72;5016471;28;20088;-79
2023/07/06 06:35:47;;;;;;;6.72;4.32;;;;;;;15.34;94.87;101649.84;5034927;28;20037;-78
2023/07/06 06:38:14;;;;;;;9.55;5.65;;;;;;;15.37;94.67;101659.38;5034467;28;20092;-79
2023/07/06 06:40:39;;;;;;;7.53;5.13;;;;;;;15.39;95.28;101660.19;5000134;28;20033;-79
2023/07/06 06:43:05;;;;;;;6.95;5.15;;;;;;;15.41;95.49;101657.47;5014484;28;20036;-79
2023/07/06 06:45:31;;;;;;;11.70;5.45;;;;;;;15.42;95.64;101659.19;5015432;28;20345;-79
2023/07/06 06:47:57;;;;;;;9.98;5.20;;;;;;;15.46;95.96;101672.16;5015018;28;20263;-79
2023/07/06 06:50:23;;;;;;;7.45;5.53;;;;;;;15.47;96.58;101658.03;5014708;28;20030;-79
2023/07/06 06:52:49;;;;;;;7.07;4.18;;;;;;;15.50;95.97;101663.16;5014711;28;20282;-79
2023/07/06 06:55:15;;;;;;;9.13;4.22;;;;;;;15.52;95.99;101665.75;4996710;28;20017;-79
2023/07/06 06:57:41;;;;;;;23.60;8.30;;;;;;;15.53;96.15;101659.50;5018741;28;20108;-79
2023/07/06 07:00:10;;;;;;;11.20;4.80;;;;;;;15.55;96.17;101661.16;5018052;28;20374;-79
2023/07/06 07:02:38;;;;;;;6.47;4.32;;;;;;;15.56;96.16;101662.00;5018683;28;20230;-79
2023/07/06 07:05:05;;;;;;;7.07;4.38;;;;;;;15.58;95.81;101672.50;5007495;28;20049;-79
2023/07/06 07:07:30;;;;;;;7.90;5.00;;;;;;;15.61;95.63;101665.28;5017878;28;20072;-79
2023/07/06 07:09:55;;;;;;;8.55;4.57;;;;;;;15.64;95.96;101669.56;5016833;28;20061;-79
2023/07/06 07:12:21;;;;;;;6.03;4.13;;;;;;;15.67;95.99;101661.50;5017376;28;20038;-79
2023/07/06 07:14:48;;;;;;;9.80;4.72;;;;;;;15.69;95.71;101665.75;5011001;28;20034;-79
2023/07/06 07:17:14;;;;;;;12.48;6.32;;;;;;;15.73;96.52;101662.06;5014231;28;20034;-79
2023/07/06 07:19:40;;;;;;;7.50;4.78;;;;;;;15.76;96.43;101670.78;5017978;28;20041;-79
2023/07/06 07:22:06;;;;;;;11.60;5.75;;;;;;;15.79;96.87;101665.34;5019945;28;20088;-79
2023/07/06 07:24:32;;;;;;;5.05;4.05;;;;;;;15.82;96.72;101670.47;5017908;28;20107;-79
2023/07/06 07:27:00;;;;;;;5.38;4.10;;;;;;;15.81;96.11;101672.28;5017719;28;20037;-79
2023/07/06 07:29:25;;;;;;;6.85;4.65;;;;;;;15.82;95.40;101667.81;5014167;28;20203;-79
2023/07/06 07:31:51;;;;;;;7.72;4.15;;;;;;;15.83;95.25;101672.19;5015728;28;20045;-79
2023/07/06 07:34:17;;;;;;;6.57;3.85;;;;;;;15.86;95.34;101679.94;5021556;28;20033;-79
2023/07/06 07:36:43;;;;;;;5.30;4.18;;;;;;;15.87;95.04;101665.81;5014777;28;20030;-79
2023/07/06 07:39:09;;;;;;;5.88;3.60;;;;;;;15.87;94.89;101682.50;5016045;28;20030;-79
2023/07/06 07:41:35;;;;;;;8.40;4.50;;;;;;;15.87;94.45;101686.94;5017929;28;20037;-79
2023/07/06 07:44:01;;;;;;;3.95;3.25;;;;;;;15.86;94.43;101683.47;5016117;28;20249;-79
2023/07/06 07:46:28;;;;;;;7.70;4.45;;;;;;;15.87;94.62;101684.31;5016740;28;20366;-79
2023/07/06 07:48:54;;;;;;;6.00;4.00;;;;;;;15.87;94.52;101682.50;5017390;28;20044;-79
2023/07/06 07:51:26;;;;;;;6.07;3.53;;;;;;;15.87;94.51;101694.88;5012046;28;20026;-79
2023/07/06 07:53:54;;;;;;;7.05;4.30;;;;;;;15.87;94.33;101692.25;5012027;28;20221;-79
2023/07/06 07:56:21;;;;;;;5.13;3.60;;;;;;;15.86;94.34;101687.88;5014966;28;20072;-79
2023/07/06 07:58:48;;;;;;;6.35;3.83;;;;;;;15.86;94.29;101688.75;5015893;28;20037;-79
2023/07/06 08:01:16;;;;;;;36.67;5.82;;;;;;;15.87;95.31;101700.16;5016022;28;20029;-79
2023/07/06 08:03:42;;;;;;;70.95;6.95;;;;;;;15.84;95.92;101695.88;5020500;28;20083;-78
2023/07/06 08:06:09;;;;;;;22.35;5.05;;;;;;;15.83;96.63;101702.09;4997805;28;20050;-78
2023/07/06 08:08:37;;;;;;;28.48;5.45;;;;;;;15.80;96.97;101699.59;5014779;28;20037;-81
2023/07/06 08:11:14;;;;;;;25.05;5.50;;;;;;;15.80;97.41;101718.09;5015939;28;20041;-78
2023/07/06 08:13:40;;;;;;;59.00;8.32;;;;;;;15.79;97.59;101715.50;5009961;28;20251;-78
2023/07/06 08:16:06;;;;;;;43.95;6.68;;;;;;;15.77;97.91;101707.69;5012336;28;20025;-87
2023/07/06 08:18:32;;;;;;;36.00;5.68;;;;;;;15.77;98.12;101710.31;5017141;28;20393;-78
2023/07/06 08:21:01;;;;;;;41.92;6.25;;;;;;;15.74;97.77;101711.31;5015358;28;20259;-80
2023/07/06 08:23:28;;;;;;;31.35;5.15;;;;;;;15.79;98.17;101715.50;5002616;28;20070;-81
2023/07/06 08:25:54;;;;;;;54.00;7.22;;;;;;;15.80;98.29;101715.44;5015799;28;20231;-78
2023/07/06 08:28:22;;;;;;;26.20;5.50;;;;;;;15.81;98.39;101719.81;5016319;28;20030;-78
2023/07/06 08:30:49;;;;;;;60.60;5.68;;;;;;;15.81;97.75;101725.09;5016666;28;20062;-78
2023/07/06 08:33:15;;;;;;;44.40;6.10;;;;;;;15.81;97.80;101724.22;5017138;28;20358;-78
2023/07/06 08:35:44;;;;;;;36.78;5.43;;;;;;;15.81;97.88;101721.56;5017078;28;20093;-78
2023/07/06 08:38:14;;;;;;;17.23;3.88;;;;;;;15.79;97.93;101734.88;5000379;28;20032;-78
2023/07/06 08:40:41;;;;;;;14.57;4.13;;;;;;;15.78;98.24;101735.78;5013937;28;20167;-78
2023/07/06 08:43:15;;;;;;;16.83;3.50;;;;;;;15.77;98.13;101735.88;5016196;28;20033;-77
2023/07/06 08:45:43;;;;;;;13.32;3.35;;;;;;;15.73;98.04;101730.72;4999682;28;20038;-77
2023/07/06 08:48:22;;;;;;;6.63;2.45;;;;;;;15.71;97.77;101740.47;5009602;28;20100;-77
2023/07/06 08:50:51;;;;;;;4.85;1.98;;;;;;;15.70;98.00;101748.50;5016554;28;20037;-77
2023/07/06 08:53:20;;;;;;;8.07;2.28;;;;;;;15.68;98.25;101758.25;4998943;28;20618;-77
2023/07/06 08:55:49;;;;;;;7.88;2.40;;;;;;;15.67;98.61;101764.47;5021472;28;20298;-77
2023/07/06 08:58:24;;;;;;;9.45;3.63;;;;;;;15.65;98.80;101761.06;5018325;28;20045;-77
2023/07/06 09:00:49;;;;;;;10.25;4.05;;;;;;;15.64;99.32;101762.81;5016329;28;20037;-77
2023/07/06 09:03:15;;;;;;;10.77;2.92;;;;;;;15.62;99.82;101764.69;5017036;28;20285;-77
2023/07/06 09:05:46;;;;;;;9.35;3.00;;;;;;;15.61;100.00;101765.63;5013604;28;20069;-77
2023/07/06 09:08:15;;;;;;;9.25;2.35;;;;;;;15.61;100.00;101760.34;4994664;28;20068;-77
2023/07/06 09:10:41;;;;;;;10.48;2.45;;;;;;;15.63;100.00;101766.41;5015998;28;20339;-77
2023/07/06 09:13:25;;;;;;;11.75;3.35;;;;;;;15.68;100.00;101768.81;5015411;28;20030;-77
2023/07/06 09:16:00;;;;;;;6.18;2.78;;;;;;;15.71;100.00;101774.81;5015568;28;20034;-77
2023/07/06 09:18:28;;;;;;;8.60;2.78;;;;;;;15.76;100.00;101769.34;5015842;28;20041;-77
2023/07/06 09:20:56;;;;;;;5.17;2.27;;;;;;;15.79;100.00;101774.50;5015741;28;20328;-78
2023/07/06 09:23:21;;;;;;;14.18;3.10;;;;;;;15.84;100.00;101768.97;5015660;28;20334;-77
2023/07/06 09:25:48;;;;;;;8.70;2.65;;;;;;;15.87;100.00;101774.13;5024094;28;20233;-77
2023/07/06 09:28:18;;;;;;;7.43;2.58;;;;;;;15.89;100.00;101770.47;5008809;28;20061;-77
2023/07/06 09:30:44;;;;;;;7.82;2.42;;;;;;;15.91;99.91;101771.25;5015892;28;20235;-78
2023/07/06 09:33:20;;;;;;;7.25;2.50;;;;;;;15.96;99.94;101770.19;5014988;28;20327;-78
2023/07/06 09:35:53;;;;;;;2.45;2.25;;;;;;;15.96;99.31;101784.25;5023963;28;20321;-78
2023/07/06 09:38:19;;;;;;;3.53;2.03;;;;;;;15.96;98.27;101776.31;4991946;28;20340;-78
2023/07/06 09:40:46;;;;;;;2.05;1.85;;;;;;;15.96;97.59;101773.66;4993106;28;20041;-78
2023/07/06 09:43:25;;;;;;;2.72;1.85;;;;;;;15.97;97.79;101770.13;4997389;28;20061;-77
2023/07/06 09:45:51;;;;;;;;;;;;;;;15.98;97.52;101779.72;5015750;28;20026;-78
2023/07/06 09:48:37;;;;;;;8.18;1.70;;;;;;;16.00;96.92;101769.09;5014640;28;19989;-78
2023/07/06 09:51:11;;;;;;;4.07;1.63;;;;;;;16.02;95.32;101776.00;5015293;28;20048;-76
2023/07/06 09:53:51;;;;;;;3.72;2.00;;;;;;;16.03;94.42;101787.44;5014280;28;20285;-78
2023/07/06 09:56:17;;;;;;;4.03;1.33;;;;;;;16.03;92.57;101792.72;5015015;28;20040;-78
2023/07/06 09:58:45;;;;;;;6.43;1.20;;;;;;;16.00;89.21;101792.88;5014353;28;20084;-78
2023/07/06 10:01:33;;;;;;;2.13;1.10;;;;;;;15.99;89.97;101789.38;5014858;28;20033;-77
2023/07/06 10:04:16;;;;;;;11.32;2.05;;;;;;;15.97;88.90;101795.66;5019948;28;20327;-78
2023/07/06 10:07:06;;;;;;;2.58;0.90;;;;;;;15.99;89.60;101786.75;5033408;28;20045;-77
2023/07/06 10:09:40;;;;;;;1.60;1.02;;;;;;;16.02;90.97;101791.00;5015488;28;20025;-78
2023/07/06 10:12:45;;;;;;;5.63;1.13;;;;;;;16.06;91.74;101789.91;4996263;28;20267;-78
2023/07/06 10:15:25;;;;;;;1.38;1.05;;;;;;;16.09;87.39;101787.13;5005174;28;20025;-78
2023/07/06 10:18:00;;;;;;;1.40;0.70;;;;;;;16.09;83.01;101795.91;5014234;28;20048;-77
2023/07/06 10:20:52;;;;;;;1.08;0.70;;;;;;;16.10;83.91;101797.63;5008019;28;20048;-78
2023/07/06 10:23:34;;;;;;;1.33;0.85;;;;;;;16.11;86.38;101795.84;5012038;28;20042;-77
2023/07/06 10:26:27;;;;;;;27.05;1.65;;;;;;;16.13;87.30;101796.63;5012693;28;20037;-82
2023/07/06 10:29:05;;;;;;;14.25;1.17;;;;;;;16.14;85.26;101790.41;4993872;28;20040;-77
2023/07/06 10:31:51;;;;;;;9.18;1.50;;;;;;;16.17;85.31;101797.31;5012724;28;20600;-77
2023/07/06 10:34:38;;;;;;;4.13;0.90;;;;;;;16.18;81.98;101799.06;5029735;28;20052;-77
2023/07/06 10:37:05;;;;;;;3.10;0.90;;;;;;;16.21;81.88;101810.34;5011948;28;20042;-77
2023/07/06 10:39:30;;;;;;;1.42;0.93;;;;;;;16.20;82.58;101800.69;5015926;28;20038;-78
2023/07/06 10:42:04;;;;;;;3.97;0.80;;;;;;;16.22;83.12;101805.88;5016170;28;20088;-77
2023/07/06 10:44:43;;;;;;;9.68;1.45;;;;;;;16.23;78.01;101805.81;5014169;28;20041;-78
2023/07/06 10:47:28;;;;;;;8.60;1.45;;;;;;;16.28;77.75;101814.38;4996924;28;20348;-78
2023/07/06 10:50:31;;;;;;;1.17;0.93;;;;;;;16.31;76.58;101808.94;5013928;28;20144;-77
2023/07/06 10:52:57;;;;;;;4.95;0.98;;;;;;;16.31;79.64;101806.28;5008184;28;20045;-78
2023/07/06 10:55:27;;;;;;;3.47;0.70;;;;;;;16.32;78.12;101823.03;5015889;28;20034;-78
2023/07/06 10:58:09;;;;;;;4.72;1.05;;;;;;;16.31;78.77;101816.00;4998241;28;20036;-77
2023/07/06 11:00:37;;;;;;;3.33;0.85;;;;;;;16.28;78.47;101827.59;5013934;28;20251;-77
2023/07/06 11:03:05;;;;;;;0.60;0.50;;;;;;;16.28;79.30;101818.78;5015437;28;20037;-78
2023/07/06 11:05:34;;;;;;;5.40;0.82;;;;;;;16.29;76.08;101823.16;5026258;28;20372;-77
2023/07/06 11:08:04;;;;;;;4.07;1.30;;;;;;;16.32;78.35;101823.03;5015663;28;20254;-77
2023/07/06 11:10:37;;;;;;;1.65;0.77;;;;;;;16.34;78.01;101830.88;5013904;28;20048;-78
2023/07/06 11:13:04;;;;;;;4.65;0.60;;;;;;;16.35;75.46;101828.13;5015613;28;20045;-77
2023/07/06 11:15:35;;;;;;;0.95;0.88;;;;;;;16.38;78.78;101821.84;5015954;28;20026;-78
2023/07/06 11:18:18;;;;;;;1.77;1.00;;;;;;;16.40;80.15;101830.56;5016006;28;20080;-76
2023/07/06 11:20:51;;;;;;;1.98;1.05;;;;;;;16.41;79.66;101826.97;5014721;28;20084;-77
2023/07/06 11:23:30;;;;;;;0.70;0.70;;;;;;;16.42;80.64;101828.69;5015771;28;20032;-77
2023/07/06 11:25:56;;;;;;;2.00;0.90;;;;;;;16.45;80.43;101834.69;5022253;28;20037;-78
2023/07/06 11:28:23;;;;;;;0.75;0.63;;;;;;;16.45;78.99;101839.13;5019671;28;20135;-77
2023/07/06 11:31:12;;;;;;;3.58;0.80;;;;;;;16.44;73.70;101838.25;5007663;28;20029;-78
2023/07/06 11:33:59;;;;;;;2.45;0.80;;;;;;;16.44;75.30;101838.25;5017726;28;20095;-78
2023/07/06 11:36:41;;;;;;;1.88;0.80;;;;;;;16.50;74.85;101834.47;5014971;28;20341;-78
2023/07/06 11:39:31;;;;;;;2.47;0.70;;;;;;;16.54;71.51;101837.81;5009240;28;20060;-78